• Join FlightAware (Why Join?)
  • Login
  • US Flag 
04:29PM EDT


 

Airport Tracker/Info


-or-


 

Live Flight TrackerFlight Track Log ✈ N71ST ✈ 27-Apr-2013 ✈ KBED - KSFQ

Flight Track Log - Related Links

Times and Time Zones

All times are in EDT time to prevent confusion due to time zone crossing. See the N71ST flight status page for this flight to view local times or setup timezone preferences in your user account.

Time Position Orientation Groundspeed Altitude Reporting Facility
EDT Latitude Longitude Course Direction KTS MPH feet Rate Location/Type
03:41PM 42.4667 -71.3000 270° West 85 98 900  Level KA90
03:42PM 42.4667 -71.3167 270° West 83 96 1,600 660 Climbing KA90
03:43PM 42.4500 -71.3500 236° Southwest 94 108 2,200 720 Climbing KA90
03:44PM 42.4333 -71.3833 236° Southwest 98 113 3,100 900 Climbing KA90
03:45PM 42.4167 -71.4167 236° Southwest 97 112 4,000 840 Climbing KA90
03:46PM 42.3833 -71.4333 200° South 101 116 4,800 720 Climbing KA90
03:47PM 42.3667 -71.4667 236° Southwest 104 120 5,500 540 Climbing KA90
03:48PM 42.3442 -71.4850 211° Southwest 100 115 5,900 300 Climbing Boston Center
03:48PM 42.3175 -71.5108 216° Southwest 118 136 6,100  Climbing Boston Center
03:49PM 42.2883 -71.5364 213° Southwest 121 139 6,000  Descending Boston Center
03:50PM 42.2594 -71.5678 219° Southwest 127 146 6,200 60 Climbing Boston Center
03:51PM 42.2347 -71.5906 214° Southwest 133 153 6,200 -60 Level Boston Center
03:52PM 42.2017 -71.6217 215° Southwest 136 157 6,100 -120 Descending Boston Center
03:53PM 42.1831 -71.6639 239° Southwest 143 165 6,000  Descending Boston Center
03:54PM 42.1728 -71.7033 251° West 136 157 6,100  Climbing Boston Center
03:55PM 42.1669 -71.7342 256° West 134 154 6,000 -120 Descending Boston Center
03:56PM 42.1547 -71.7819 251° West 134 154 6,000  Level Boston Center
03:57PM 42.1467 -71.8242 256° West 131 151 6,000  Level Boston Center
03:58PM 42.1383 -71.8744 257° West 133 153 6,000  Level Boston Center
03:59PM 42.1283 -71.9194 253° West 131 151 6,000  Level Boston Center
04:00PM 42.0908 -71.9308 193° South 131 151 6,100  Climbing Boston Center
04:01PM 42.0533 -71.9339 183° South 135 155 6,100  Level Boston Center
04:02PM 42.0117 -71.9344 181° South 135 155 6,100 -60 Level Boston Center
04:03PM 41.9783 -71.9375 184° South 136 157 6,000 -60 Descending Boston Center
04:04PM 41.9408 -71.9378 180° South 134 154 6,000 -60 Level Boston Center
04:05PM 41.9011 -71.9242 166° South 142 163 5,900  Descending Boston Center
04:06PM 41.8658 -71.9300 187° South 135 155 6,100  Climbing Boston Center
04:07PM 41.8261 -71.9358 186° South 139 160 6,000  Descending Boston Center
04:08PM 41.7867 -71.9444 189° South 143 165 6,100  Climbing Boston Center
04:09PM 41.7469 -71.9503 186° South 140 161 6,000 -60 Descending Boston Center
04:10PM 41.7075 -71.9536 184° South 142 163 6,000  Level Boston Center
04:11PM 41.6719 -71.9619 190° South 143 165 6,000  Level Boston Center
04:12PM 41.6283 -71.9708 189° South 145 167 6,100  Climbing Boston Center
04:13PM 41.5908 -71.9767 187° South 144 166 6,000  Descending Boston Center
04:14PM 41.5533 -71.9906 195° South 145 167 6,100  Climbing Boston Center
04:15PM 41.5222 -72.0214 217° Southwest 141 162 6,100 -60 Level Boston Center
04:16PM 41.4953 -72.0603 227° Southwest 141 162 6,000 -60 Descending Boston Center
04:17PM 41.4683 -72.0994 227° Southwest 141 162 6,000  Level Boston Center
04:18PM 41.4350 -72.1439 225° Southwest 143 165 6,100  Climbing Boston Center
04:19PM 41.4061 -72.1856 227° Southwest 143 165 6,100  Level Boston Center
04:20PM 41.3706 -72.2217 217° Southwest 145 167 6,100 1,500 Level Boston Center
04:23PM 41.3000 -72.3000 220° Southwest 145 167 11,500  Climbing New York TRACON
04:24PM 41.2667 -72.3333 217° Southwest 144 166 6,100 -2,700 Descending New York TRACON
04:25PM 41.2333 -72.3667 217° Southwest 148 170 6,100  Level New York TRACON
04:26PM 41.2000 -72.4000 217° Southwest 145 167 6,100  Level New York TRACON
04:27PM 41.1833 -72.4500 246° West 146 168 6,100  Level New York TRACON
04:28PM 41.1500 -72.4833 217° Southwest 142 163 6,100  Level New York TRACON
04:29PM 41.1333 -72.5167 236° Southwest 147 169 6,100  Level New York TRACON
04:30PM 41.1000 -72.5667 229° Southwest 140 161 6,100  Level New York TRACON
04:31PM 41.0667 -72.6000 217° Southwest 144 166 6,100  Level New York TRACON
04:32PM 41.0500 -72.6333 236° Southwest 141 162 6,100 -60 Level New York TRACON
04:33PM 41.0167 -72.6667 217° Southwest 144 166 6,000 -60 Descending New York TRACON
04:34PM 41.0000 -72.7167 246° West 141 162 6,000 -60 Level New York TRACON
04:35PM 40.9667 -72.7500 217° Southwest 142 163 5,900  Descending New York TRACON
04:36PM 40.9333 -72.7833 217° Southwest 140 161 6,000 60 Climbing New York TRACON
04:37PM 40.9167 -72.8167 237° Southwest 137 158 6,100  Climbing New York TRACON
04:38PM 40.9167 -72.8667 270° West 132 152 6,100 -60 Level New York TRACON
04:39PM 40.9000 -72.9167 246° West 136 157 6,000  Descending New York TRACON
04:40PM 40.9000 -72.9500 270° West 121 139 6,100  Climbing New York TRACON
04:41PM 40.8833 -73.0000 246° West 141 162 6,100 -60 Level New York TRACON
04:42PM 40.8833 -73.0500 270° West 132 152 6,000  Descending New York TRACON
04:43PM 40.8833 -73.0833 270° West 128 147 6,100  Climbing New York TRACON
04:44PM 40.8833 -73.1333 270° West 132 152 6,100 -120 Level New York TRACON
04:45PM 40.8833 -73.1833 270° West 128 147 5,900 -60 Descending New York TRACON
04:46PM 40.8833 -73.2333 270° West 124 143 6,000 120 Climbing New York TRACON
04:47PM 40.8667 -73.2833 246° West 131 151 6,200  Climbing New York TRACON
04:48PM 40.8667 -73.3333 270° West 139 160 6,000 -120 Descending New York TRACON
04:49PM 40.8667 -73.3667 270° West 129 148 6,000  Level New York TRACON
04:50PM 40.8500 -73.4167 246° West 132 152 6,000  Level New York TRACON
04:51PM 40.8500 -73.4667 270° West 132 152 6,100  Climbing New York TRACON
04:52PM 40.8500 -73.5167 270° West 137 158 6,000 -60 Descending New York TRACON
04:53PM 40.8333 -73.5667 246° West 143 165 6,000  Level New York TRACON
04:54PM 40.8000 -73.5833 201° Southwest 140 161 6,100  Climbing New York TRACON
04:55PM 40.7667 -73.6167 217° Southwest 145 167 6,000  Descending New York TRACON
04:56PM 40.7333 -73.6667 229° Southwest 142 163 6,200  Climbing New York TRACON
04:57PM 40.7000 -73.7000 217° Southwest 137 158 6,100 -60 Descending New York TRACON
04:58PM 40.6667 -73.7167 201° Southwest 139 160 6,100  Level New York TRACON
04:59PM 40.6500 -73.7500 237° Southwest 125 144 6,100  Level New York TRACON
05:00PM 40.6167 -73.7833 217° Southwest 123 142 6,100  Level New York TRACON
05:01PM 40.5667 -73.8167 207° Southwest 142 163 6,100  Level New York TRACON
05:02PM 40.5333 -73.8333 201° Southwest 143 165 6,200 -60 Climbing New York TRACON
05:03PM 40.5000 -73.8667 217° Southwest 149 171 6,000 -60 Descending New York TRACON
05:04PM 40.4667 -73.8833 201° Southwest 145 167 6,100  Climbing New York TRACON
05:05PM 40.4333 -73.9167 217° Southwest 143 165 6,000  Descending New York TRACON
05:07PM 40.3706 -73.9554 205° Southwest  Level FlightAware Approximate
05:14PM 40.1375 -74.1230 201° Southwest  Level FlightAware Approximate
05:15PM 40.1015 -74.1409 201° Southwest  Level FlightAware Approximate
05:16PM 40.0693 -74.1669 223° Southwest  Level FlightAware Approximate
05:17PM 40.0409 -74.2009 223° Southwest  Level FlightAware Approximate
05:18PM 40.0126 -74.2350 223° Southwest  Level FlightAware Approximate
05:19PM 39.9824 -74.2660 215° Southwest  Level FlightAware Approximate
05:20PM 39.9508 -74.2948 215° Southwest  Level FlightAware Approximate
05:21PM 39.9193 -74.3235 215° Southwest  Level FlightAware Approximate
05:22PM 39.8877 -74.3523 215° Southwest  Level FlightAware Approximate
05:23PM 39.8561 -74.3810 215° Southwest  Level FlightAware Approximate
05:24PM 39.8245 -74.4096 215° Southwest  Level FlightAware Approximate
05:25PM 39.7927 -74.4380 214° Southwest  Level FlightAware Approximate
05:26PM 39.7609 -74.4663 214° Southwest  Level FlightAware Approximate
05:27PM 39.7291 -74.4946 214° Southwest  Level FlightAware Approximate
05:28PM 39.6973 -74.5228 214° Southwest  Level FlightAware Approximate
05:29PM 39.6656 -74.5511 218° Southwest  Level FlightAware Approximate
05:30PM 39.6351 -74.5816 218° Southwest  Level FlightAware Approximate
05:31PM 39.6045 -74.6121 218° Southwest  Level FlightAware Approximate
05:32PM 39.5740 -74.6426 218° Southwest  Level FlightAware Approximate
05:33PM 39.5435 -74.6731 218° Southwest  Level FlightAware Approximate
05:34PM 39.5131 -74.7036 218° Southwest  Level FlightAware Approximate
05:35PM 39.4822 -74.7334 216° Southwest  Level FlightAware Approximate
05:36PM 39.4509 -74.7626 216° Southwest  Level FlightAware Approximate
05:37PM 39.4197 -74.7918 216° Southwest  Level FlightAware Approximate
05:38PM 39.3885 -74.8210 216° Southwest  Level FlightAware Approximate
05:39PM 39.3573 -74.8502 216° Southwest  Level FlightAware Approximate
05:40PM 39.3260 -74.8793 216° Southwest  Level FlightAware Approximate
05:41PM 39.2948 -74.9084 216° Southwest  Level FlightAware Approximate
05:42PM 39.2635 -74.9374 216° Southwest  Level FlightAware Approximate
05:43PM 39.2298 -74.9609 203° Southwest  Level FlightAware Approximate
05:44PM 39.1943 -74.9801 203° Southwest  Level FlightAware Approximate
05:45PM 39.1588 -74.9992 203° Southwest  Level FlightAware Approximate
05:46PM 39.1232 -75.0183 203° Southwest  Level FlightAware Approximate
05:47PM 39.0877 -75.0375 203° Southwest  Level FlightAware Approximate
05:48PM 39.0522 -75.0566 203° Southwest  Level FlightAware Approximate
05:49PM 39.0190 -75.0810 218° Southwest  Level FlightAware Approximate
05:50PM 38.9839 -75.1010 203° Southwest  Level FlightAware Approximate
05:51PM 38.9484 -75.1202 203° Southwest  Level FlightAware Approximate
05:52PM 38.9129 -75.1393 203° Southwest  Level FlightAware Approximate
05:53PM 38.8774 -75.1584 203° Southwest  Level FlightAware Approximate
05:54PM 38.8418 -75.1775 203° Southwest  Level FlightAware Approximate
05:55PM 38.8063 -75.1966 203° Southwest  Level FlightAware Approximate
05:56PM 38.7717 -75.2182 207° Southwest  Level FlightAware Approximate
05:57PM 38.7373 -75.2404 207° Southwest  Level FlightAware Approximate
05:58PM 38.7029 -75.2626 207° Southwest  Level FlightAware Approximate
05:59PM 38.6684 -75.2847 207° Southwest  Level FlightAware Approximate
05:59PM 38.6378 -75.3181 207° Southwest 141 162 6,100  Level Washington Center
06:00PM 38.6340 -75.3068 207° Southwest  Level FlightAware Approximate
06:00PM 38.6025 -75.3392 205° Southwest 141 162 6,000  Level Washington Center
06:01PM 38.5996 -75.3289 207° Southwest  Level FlightAware Approximate
06:01PM 38.5669 -75.3606 205° Southwest 146 168 6,100  Level Washington Center
06:02PM 38.5652 -75.3510 207° Southwest  Level FlightAware Approximate
06:02PM 38.5294 -75.3819 204° Southwest 146 168 6,200  Level Washington Center
06:03PM 38.5308 -75.3731 207° Southwest  Level FlightAware Approximate
06:03PM 38.4942 -75.4033 205° Southwest 151 174 6,000  Level Washington Center
06:04PM 38.4964 -75.3953 207° Southwest  Level FlightAware Approximate
06:04PM 38.4586 -75.4247 205° Southwest 151 174 6,100  Level Washington Center
06:06PM 38.3858 -75.4619 202° Southwest 151 174 6,000 -120 Descending Washington Center
06:07PM 38.3525 -75.4939 217° Southwest 151 174 5,900 -60 Descending Washington Center
06:08PM 38.3211 -75.5150 208° Southwest 145 167 5,900  Level Washington Center
06:09PM 38.2794 -75.5442 209° Southwest 145 167 6,000  Climbing Washington Center
06:10PM 38.2461 -75.5653 206° Southwest 145 167 6,000  Level Washington Center
06:11PM 38.2189 -75.5839 208° Southwest 145 167 6,000  Level Washington Center
06:12PM 38.1794 -75.6128 210° Southwest 132 152 6,000  Level Washington Center
06:13PM 38.1419 -75.6367 207° Southwest 143 165 6,000  Level Washington Center
06:14PM 38.1106 -75.6631 213° Southwest 149 171 6,100  Climbing Washington Center
06:15PM 38.0731 -75.6842 204° Southwest 149 171 6,100 -60 Level Washington Center
06:16PM 38.0356 -75.7050 204° Southwest 149 171 6,000 -60 Descending Washington Center
06:17PM 38.0000 -75.7289 208° Southwest 149 171 6,000  Level Washington Center
06:18PM 37.9625 -75.7497 204° Southwest 149 171 6,100  Climbing Washington Center
06:19PM 37.9247 -75.7656 198° South 149 171 6,000  Descending Washington Center
06:20PM 37.8853 -75.7892 205° Southwest 149 171 6,100  Climbing Washington Center
06:21PM 37.8497 -75.8047 199° South 154 177 6,000  Descending Washington Center
06:22PM 37.8122 -75.8231 201° Southwest 154 177 6,100  Climbing Washington Center
06:23PM 37.7786 -75.8467 209° Southwest 154 177 6,100 -120 Level Washington Center
06:23PM 37.7517 -75.8622 205° Southwest 144 166 6,000 -120 Descending Washington Center
06:24PM 37.7411 -75.8650 192° South 149 171 6,000  Level Washington Center
06:24PM 37.7181 -75.8831 212° Southwest 146 168 6,000  Level Washington Center
06:25PM 37.7056 -75.8883 198° South 149 171 6,000  Level Washington Center
06:25PM 37.6828 -75.9067 212° Southwest 146 168 6,000  Level Washington Center
06:26PM 37.6681 -75.9197 215° Southwest 149 171 6,000  Level Washington Center
06:26PM 37.6450 -75.9328 204° Southwest 148 170 6,000 60 Level Washington Center
06:27PM 37.6344 -75.9406 210° Southwest 149 171 6,100 60 Climbing Washington Center
06:27PM 37.6136 -75.9536 206° Southwest 142 163 6,100  Level Washington Center
06:28PM 37.6011 -75.9614 206° Southwest 144 166 6,100  Level Washington Center
06:28PM 37.5656 -75.9639 183° South 151 174 6,100  Level Washington Center
06:29PM 37.5594 -75.9639 180° South 144 166 6,100  Level Washington Center
06:29PM 37.5261 -75.9742 194° South 148 170 6,100  Level Washington Center
06:30PM 37.5197 -75.9742 180° South 144 166 6,100  Level Washington Center
06:30PM 37.4967 -75.9897 208° Southwest 152 175 6,100  Level Washington Center
06:31PM 37.4842 -75.9975 206° Southwest 144 166 6,100  Level Washington Center
06:31PM 37.4611 -76.0183 216° Southwest 138 159 6,100 -120 Level Washington Center
06:32PM 37.4528 -76.0208 193° South 144 166 6,000 -120 Descending Washington Center
06:32PM 37.4278 -76.0442 217° Southwest 140 161 6,000  Level Washington Center
06:33PM 37.4194 -76.0494 207° Southwest 144 166 6,000  Level Washington Center
06:33PM 37.3922 -76.0675 208° Southwest 139 160 6,000  Level Washington Center
06:34PM 37.3586 -76.0936 212° Southwest 139 160 6,000 -60 Level Washington Center
06:35PM 37.3272 -76.1194 213° Southwest 138 159 5,900 -60 Descending Washington Center
06:36PM 37.2939 -76.1453 212° Southwest 139 160 5,900  Level Washington Center
06:37PM 37.2583 -76.1739 213° Southwest 141 162 5,900  Level Washington Center
06:39PM 37.2247 -76.2047 216° Southwest 141 162 6,000  Climbing Washington Center
06:40PM 37.1953 -76.2306 215° Southwest 137 158 6,000  Level Washington Center
06:41PM 37.1681 -76.2539 214° Southwest 137 158 6,000  Level Washington Center
06:42PM 37.1325 -76.2822 212° Southwest 142 163 6,000  Level Washington Center
06:43PM 37.0969 -76.3106 212° Southwest 137 158 6,000 -360 Level Washington Center
06:44PM 37.0569 -76.3442 214° Southwest 143 165 5,300 -600 Descending Washington Center
06:45PM 37.0256 -76.3644 207° Southwest 142 163 4,800 -720 Descending Washington Center
06:46PM 36.9919 -76.3953 216° Southwest 144 166 4,000 -720 Descending Washington Center
06:47PM 36.9606 -76.4211 213° Southwest 138 159 3,400 -480 Descending Washington Center
06:48PM 36.9269 -76.4544 218° Southwest 138 159 3,000 -240 Descending Washington Center
06:49PM 36.8956 -76.4828 216° Southwest 132 152 3,000 -60 Level Washington Center
06:50PM 36.8639 -76.5058 210° Southwest 128 147 2,900 -360 Descending Washington Center
06:51PM 36.8306 -76.5261 206° Southwest 138 159 2,400 -300 Descending Washington Center
06:52PM 36.7969 -76.5517 211° Southwest 132 152 2,400 -60 Level Washington Center
06:53PM 36.7758 -76.5644 206° Southwest 130 150 2,300 -180 Descending Washington Center
06:55PM 36.7046 -76.5876 195° South  Level FlightAware Approximate
07:02PM 36.6820 -76.6011 209° Southwest  Level Estimated
07:03PM 36.6820 -76.6011 209° Southwest  Level Estimated
07:04PM 36.6820 -76.6011 209° Southwest  Level Estimated